createdAt,value
2023-01-30T00:00:54.798Z,84.71
2023-01-30T00:01:58.164Z,84.77
2023-01-30T00:03:01.305Z,84.69
2023-01-30T00:04:04.317Z,84.64
2023-01-30T00:05:10.667Z,84.60
2023-01-30T00:06:14.850Z,84.56
2023-01-30T00:07:17.826Z,84.69
2023-01-30T00:08:20.816Z,84.63
2023-01-30T00:09:23.783Z,85.01
2023-01-30T00:10:26.823Z,85.07
2023-01-30T00:11:30.368Z,84.99
2023-01-30T00:12:33.549Z,84.90
2023-01-30T00:13:37.425Z,84.95
2023-01-30T00:14:40.540Z,84.98
2023-01-30T00:15:43.871Z,85.17
2023-01-30T00:16:47.321Z,85.32
2023-01-30T00:17:50.375Z,85.36
2023-01-30T00:18:53.623Z,85.39
2023-01-30T00:19:56.669Z,85.39
2023-01-30T00:21:01.470Z,85.22
2023-01-30T00:22:04.404Z,85.31
2023-01-30T00:23:07.463Z,85.61
2023-01-30T00:24:10.607Z,85.95
2023-01-30T00:25:13.780Z,85.83
2023-01-30T00:26:17.023Z,85.66
2023-01-30T00:27:20.013Z,85.67
2023-01-30T00:28:23.516Z,85.78
2023-01-30T00:29:26.427Z,86.16
2023-01-30T00:30:29.990Z,86.04
2023-01-30T00:31:32.998Z,85.78
2023-01-30T00:32:36.147Z,85.83
2023-01-30T00:33:40.000Z,85.98
2023-01-30T00:34:43.067Z,85.85
2023-01-30T00:35:48.030Z,86.02
2023-01-30T00:36:58.908Z,86.08
2023-01-30T00:38:10.588Z,86.06
2023-01-30T00:39:13.760Z,86.44
2023-01-30T00:40:17.571Z,86.41
2023-01-30T00:41:20.755Z,86.32
2023-01-30T00:42:42.396Z,86.40
2023-01-30T00:44:04.153Z,86.55
2023-01-30T00:45:28.734Z,86.50
2023-01-30T00:47:03.186Z,86.47
2023-01-30T00:48:07.103Z,86.67
2023-01-30T00:49:10.297Z,86.74
2023-01-30T00:50:13.567Z,86.87
2023-01-30T00:51:16.711Z,86.76
2023-01-30T00:52:19.775Z,86.82
2023-01-30T00:53:22.884Z,86.94
2023-01-30T00:54:25.930Z,86.98
2023-01-30T00:55:28.941Z,87.04
2023-01-30T00:56:32.012Z,86.85
2023-01-30T00:57:35.087Z,86.88
2023-01-30T00:58:38.079Z,87.07
2023-01-30T00:59:41.251Z,86.92
2023-01-30T01:00:44.276Z,87.00
2023-01-30T01:01:47.419Z,86.90
2023-01-30T01:02:50.517Z,86.90
2023-01-30T01:03:53.556Z,86.95
2023-01-30T01:04:56.678Z,87.02
2023-01-30T01:05:59.607Z,87.04
2023-01-30T01:07:02.648Z,87.08
2023-01-30T01:08:06.337Z,87.18
2023-01-30T01:09:09.963Z,87.25
2023-01-30T01:10:16.840Z,87.31
2023-01-30T01:11:26.049Z,87.33
2023-01-30T01:12:29.171Z,87.45
2023-01-30T01:13:32.638Z,87.60
2023-01-30T01:14:35.712Z,87.65
2023-01-30T01:15:39.269Z,87.50
2023-01-30T01:16:42.545Z,87.70
2023-01-30T01:17:46.404Z,87.87
2023-01-30T01:18:49.890Z,88.15
2023-01-30T01:19:52.914Z,88.34
2023-01-30T01:20:56.002Z,88.39
2023-01-30T01:21:59.106Z,88.52
2023-01-30T01:23:02.117Z,88.47
2023-01-30T01:24:05.441Z,88.48
2023-01-30T01:25:10.875Z,88.60
2023-01-30T01:26:13.852Z,88.40
2023-01-30T01:27:17.000Z,88.31
2023-01-30T01:28:22.436Z,88.12
2023-01-30T01:29:25.701Z,88.13
2023-01-30T01:30:28.682Z,88.32
2023-01-30T01:31:32.055Z,88.37
2023-01-30T01:32:35.160Z,88.37
2023-01-30T01:33:38.507Z,88.71
2023-01-30T01:34:41.659Z,88.98
2023-01-30T01:35:44.886Z,89.15
2023-01-30T01:36:53.903Z,89.22
2023-01-30T01:37:57.577Z,89.18
2023-01-30T01:39:00.566Z,89.13
2023-01-30T01:40:22.939Z,89.19
2023-01-30T01:41:26.060Z,89.22
2023-01-30T01:42:36.114Z,89.25
2023-01-30T01:44:01.346Z,89.40
2023-01-30T01:45:04.384Z,89.50
2023-01-30T01:46:21.032Z,89.26
2023-01-30T01:47:24.044Z,89.15
2023-01-30T01:48:30.086Z,89.23
2023-01-30T01:49:37.216Z,89.38
2023-01-30T01:50:49.636Z,89.53
2023-01-30T01:52:03.598Z,89.30
2023-01-30T01:53:08.838Z,89.22
2023-01-30T01:54:17.112Z,89.32
2023-01-30T01:55:21.862Z,89.23
2023-01-30T01:56:26.175Z,89.20
2023-01-30T01:57:40.262Z,89.11
2023-01-30T01:58:48.537Z,88.75
2023-01-30T02:00:13.246Z,88.48
2023-01-30T02:01:16.213Z,88.61
2023-01-30T02:02:24.723Z,88.87
2023-01-30T02:03:31.823Z,89.11
2023-01-30T02:04:56.128Z,89.20
2023-01-30T02:06:07.081Z,89.00
2023-01-30T02:07:10.607Z,88.98
2023-01-30T02:08:25.414Z,88.95
2023-01-30T02:09:28.461Z,88.88
2023-01-30T02:10:46.182Z,88.78
2023-01-30T02:11:56.398Z,88.80
2023-01-30T02:12:59.510Z,88.84
2023-01-30T02:14:03.382Z,88.93
2023-01-30T02:15:07.198Z,89.02
2023-01-30T02:16:10.220Z,89.00
2023-01-30T02:17:13.257Z,88.84
2023-01-30T02:18:16.827Z,89.04
2023-01-30T02:19:41.616Z,89.21
2023-01-30T02:20:47.424Z,89.24
2023-01-30T02:22:28.821Z,89.29
2023-01-30T02:24:08.602Z,89.51
2023-01-30T02:25:51.703Z,89.56
2023-01-30T02:27:09.982Z,89.65
2023-01-30T02:28:34.818Z,89.72
2023-01-30T02:29:40.632Z,89.79
2023-01-30T02:30:52.435Z,89.85
2023-01-30T02:32:03.844Z,89.81
2023-01-30T02:33:22.124Z,89.72
2023-01-30T02:34:43.187Z,89.81
2023-01-30T02:36:12.267Z,90.02
2023-01-30T02:37:25.512Z,90.05
2023-01-30T02:38:47.173Z,89.83
2023-01-30T02:40:16.913Z,89.68
2023-01-30T02:41:31.659Z,89.69
2023-01-30T02:42:59.461Z,89.67
2023-01-30T02:44:11.827Z,89.47
2023-01-30T02:45:37.992Z,89.32
2023-01-30T02:47:04.311Z,89.37
2023-01-30T02:48:14.030Z,89.47
2023-01-30T02:49:20.942Z,89.60
2023-01-30T02:50:29.662Z,89.68
2023-01-30T02:51:37.463Z,89.73
2023-01-30T02:52:41.467Z,89.78
2023-01-30T02:53:47.661Z,89.79
2023-01-30T02:54:50.625Z,89.79
2023-01-30T02:55:53.552Z,89.57
2023-01-30T02:57:00.786Z,89.34
2023-01-30T02:58:05.196Z,89.27
2023-01-30T02:59:08.228Z,89.21
2023-01-30T03:00:16.471Z,89.19
2023-01-30T03:01:50.462Z,89.16
2023-01-30T03:03:11.835Z,89.12
2023-01-30T03:04:40.750Z,88.93
2023-01-30T03:06:12.801Z,88.99
2023-01-30T03:07:47.721Z,89.13
2023-01-30T03:09:30.264Z,89.04
2023-01-30T03:10:48.298Z,89.13
2023-01-30T03:12:19.387Z,89.07
2023-01-30T03:13:34.635Z,88.95
2023-01-30T03:14:47.983Z,89.05
2023-01-30T03:16:25.109Z,89.15
2023-01-30T03:17:32.232Z,89.39
2023-01-30T03:18:35.381Z,89.60
2023-01-30T03:19:38.657Z,89.42
2023-01-30T03:20:42.558Z,89.50
2023-01-30T03:21:46.135Z,89.59
2023-01-30T03:22:49.442Z,89.56
2023-01-30T03:23:52.727Z,89.57
2023-01-30T03:24:55.898Z,89.65
2023-01-30T03:26:00.121Z,89.73
2023-01-30T03:27:11.072Z,89.79
2023-01-30T03:28:18.825Z,89.66
2023-01-30T03:29:23.055Z,89.54
2023-01-30T03:30:30.700Z,89.62
2023-01-30T03:31:33.884Z,89.45
2023-01-30T03:32:40.610Z,89.42
2023-01-30T03:33:43.666Z,89.49
2023-01-30T03:34:46.698Z,89.47
2023-01-30T03:35:51.404Z,89.39
2023-01-30T03:36:54.491Z,89.49
2023-01-30T03:37:58.966Z,89.52
2023-01-30T03:39:02.515Z,89.48
2023-01-30T03:40:06.222Z,89.37
2023-01-30T03:41:09.361Z,89.33
2023-01-30T03:42:12.553Z,89.32
2023-01-30T03:43:15.527Z,89.35
2023-01-30T03:44:18.634Z,89.29
2023-01-30T03:45:21.570Z,89.17
2023-01-30T03:46:24.704Z,89.11
2023-01-30T03:47:27.691Z,89.19
2023-01-30T03:48:30.893Z,89.23
2023-01-30T03:49:33.916Z,89.30
2023-01-30T03:50:36.937Z,89.46
2023-01-30T03:51:43.677Z,89.59
2023-01-30T03:52:46.692Z,89.78
2023-01-30T03:53:49.894Z,89.91
2023-01-30T03:54:53.168Z,90.08
2023-01-30T03:55:56.204Z,90.19
2023-01-30T03:56:59.290Z,90.19
2023-01-30T03:58:02.448Z,90.23
2023-01-30T03:59:05.416Z,90.32
2023-01-30T04:00:09.535Z,89.98
2023-01-30T04:01:12.589Z,89.70
2023-01-30T04:02:15.930Z,89.49
2023-01-30T04:03:18.819Z,89.48
2023-01-30T04:04:22.109Z,89.48
2023-01-30T04:05:25.710Z,89.54
2023-01-30T04:06:28.670Z,89.54
2023-01-30T04:07:32.022Z,89.57
2023-01-30T04:08:35.123Z,89.46
2023-01-30T04:09:38.161Z,89.53
2023-01-30T04:10:41.191Z,89.60
2023-01-30T04:11:44.391Z,89.53
2023-01-30T04:12:47.930Z,89.46
2023-01-30T04:13:51.026Z,89.11
2023-01-30T04:14:54.025Z,89.12
2023-01-30T04:16:19.530Z,89.34
2023-01-30T04:17:23.127Z,88.84
2023-01-30T04:18:26.822Z,88.89
2023-01-30T04:19:29.951Z,89.23
2023-01-30T04:20:33.055Z,89.38
2023-01-30T04:21:36.082Z,89.51
2023-01-30T04:22:39.080Z,89.74
2023-01-30T04:23:42.796Z,89.80
2023-01-30T04:24:45.882Z,89.75
2023-01-30T04:25:48.963Z,89.77
2023-01-30T04:26:52.189Z,89.88
2023-01-30T04:27:55.455Z,90.11
2023-01-30T04:28:58.919Z,90.34
2023-01-30T04:30:02.082Z,90.54
2023-01-30T04:31:07.396Z,90.17
2023-01-30T04:32:10.476Z,89.96
2023-01-30T04:33:13.530Z,90.01
2023-01-30T04:34:16.630Z,90.23
2023-01-30T04:35:20.027Z,90.29
2023-01-30T04:36:23.452Z,90.40
2023-01-30T04:37:26.960Z,90.49
2023-01-30T04:38:31.860Z,90.62
2023-01-30T04:39:34.915Z,90.66
2023-01-30T04:40:37.959Z,90.81
2023-01-30T04:41:40.937Z,90.91
2023-01-30T04:42:44.008Z,90.74
2023-01-30T04:43:47.105Z,90.48
2023-01-30T04:44:50.219Z,90.46
2023-01-30T04:45:53.993Z,90.30
2023-01-30T04:46:57.026Z,90.20
2023-01-30T04:48:00.089Z,90.39
2023-01-30T04:49:03.387Z,90.72
2023-01-30T04:50:07.022Z,90.89
2023-01-30T04:51:10.301Z,90.85
2023-01-30T04:52:13.262Z,90.95
2023-01-30T04:53:17.143Z,91.07
2023-01-30T04:54:20.338Z,91.17
2023-01-30T04:55:23.504Z,91.13
2023-01-30T04:56:26.677Z,91.08
2023-01-30T04:57:29.948Z,91.08
2023-01-30T04:58:32.955Z,90.95
2023-01-30T04:59:36.107Z,91.13
2023-01-30T05:00:39.105Z,91.29
2023-01-30T05:01:42.200Z,91.31
2023-01-30T05:02:45.217Z,91.74
2023-01-30T05:03:55.066Z,91.96
2023-01-30T05:05:01.625Z,92.03
2023-01-30T05:06:04.774Z,91.99
2023-01-30T05:07:11.609Z,92.40
2023-01-30T05:08:16.300Z,92.78
2023-01-30T05:09:19.303Z,92.82
2023-01-30T05:10:22.418Z,92.71
2023-01-30T05:11:27.716Z,92.66
2023-01-30T05:12:31.091Z,92.72
2023-01-30T05:13:34.109Z,92.74
2023-01-30T05:14:37.119Z,92.53
2023-01-30T05:15:44.640Z,92.31
2023-01-30T05:16:47.810Z,92.37
2023-01-30T05:17:50.800Z,92.61
2023-01-30T05:18:54.070Z,92.79
2023-01-30T05:19:57.238Z,92.71
2023-01-30T05:21:08.716Z,92.66
2023-01-30T05:22:12.661Z,92.37
2023-01-30T05:23:15.545Z,92.36
2023-01-30T05:24:18.838Z,92.35
2023-01-30T05:25:21.962Z,92.44
2023-01-30T05:26:25.338Z,92.40
2023-01-30T05:27:28.550Z,92.35
2023-01-30T05:28:31.948Z,92.37
2023-01-30T05:29:34.948Z,92.35
2023-01-30T05:30:38.056Z,92.30
2023-01-30T05:31:41.097Z,92.21
2023-01-30T05:32:44.136Z,91.93
2023-01-30T05:33:49.403Z,91.93
2023-01-30T05:34:52.459Z,91.75
2023-01-30T05:35:55.469Z,91.59
2023-01-30T05:36:58.506Z,91.67
2023-01-30T05:38:02.458Z,91.81
2023-01-30T05:39:05.467Z,92.01
2023-01-30T05:40:11.875Z,92.03
2023-01-30T05:41:16.628Z,91.95
2023-01-30T05:42:19.706Z,91.97
2023-01-30T05:43:22.811Z,91.85
2023-01-30T05:44:25.902Z,91.86
2023-01-30T05:45:28.886Z,92.08
2023-01-30T05:46:32.404Z,92.24
2023-01-30T05:47:35.303Z,92.17
2023-01-30T05:48:38.420Z,91.98
2023-01-30T05:49:41.494Z,92.16
2023-01-30T05:50:44.500Z,92.27
2023-01-30T05:51:48.512Z,92.38
2023-01-30T05:52:52.889Z,92.58
2023-01-30T05:53:56.182Z,92.61
2023-01-30T05:54:59.464Z,92.58
2023-01-30T05:56:05.899Z,92.61
2023-01-30T05:57:08.925Z,92.69
2023-01-30T05:58:12.461Z,92.85
2023-01-30T05:59:15.687Z,92.95
2023-01-30T06:00:19.411Z,92.70
2023-01-30T06:01:23.657Z,92.50
2023-01-30T06:02:26.636Z,92.19
2023-01-30T06:03:30.109Z,92.10
2023-01-30T06:04:36.618Z,91.92
2023-01-30T06:05:39.580Z,92.04
2023-01-30T06:06:42.606Z,92.26
2023-01-30T06:07:45.718Z,92.43
2023-01-30T06:08:49.219Z,92.59
2023-01-30T06:09:52.152Z,92.43
2023-01-30T06:10:55.207Z,92.22
2023-01-30T06:11:58.312Z,92.24
2023-01-30T06:13:01.258Z,92.20
2023-01-30T06:14:04.256Z,92.05
2023-01-30T06:15:07.684Z,92.07
2023-01-30T06:16:16.137Z,92.19
2023-01-30T06:17:19.251Z,92.37
2023-01-30T06:18:22.333Z,92.17
2023-01-30T06:19:25.327Z,92.12
2023-01-30T06:20:28.245Z,92.30
2023-01-30T06:21:31.943Z,92.39
2023-01-30T06:22:34.805Z,92.50
2023-01-30T06:23:39.084Z,92.48
2023-01-30T06:24:42.041Z,92.56
2023-01-30T06:25:46.043Z,92.90
2023-01-30T06:26:49.408Z,93.09
2023-01-30T06:27:52.474Z,93.16
2023-01-30T06:28:55.681Z,93.21
2023-01-30T06:29:58.723Z,92.97
2023-01-30T06:31:02.172Z,92.94
2023-01-30T06:32:05.545Z,93.04
2023-01-30T06:33:10.771Z,92.81
2023-01-30T06:34:13.721Z,92.78
2023-01-30T06:35:17.155Z,92.82
2023-01-30T06:36:20.604Z,92.70
2023-01-30T06:37:25.804Z,92.66
2023-01-30T06:38:32.575Z,92.72
2023-01-30T06:39:35.418Z,92.70
2023-01-30T06:40:39.103Z,92.72
2023-01-30T06:41:42.011Z,92.89
2023-01-30T06:42:49.022Z,92.98
2023-01-30T06:43:52.095Z,92.99
2023-01-30T06:44:55.167Z,93.05
2023-01-30T06:45:59.987Z,93.14
2023-01-30T06:47:03.105Z,93.14
2023-01-30T06:48:07.158Z,93.14
2023-01-30T06:49:10.414Z,93.16
2023-01-30T06:50:14.996Z,93.22
2023-01-30T06:51:18.040Z,93.27
2023-01-30T06:52:20.964Z,93.29
2023-01-30T06:53:30.527Z,93.30
2023-01-30T06:54:33.608Z,93.29
2023-01-30T06:55:36.865Z,93.20
2023-01-30T06:56:40.173Z,93.19
2023-01-30T06:57:44.127Z,93.00
2023-01-30T06:58:47.248Z,92.90
2023-01-30T06:59:50.522Z,93.09
2023-01-30T07:00:53.943Z,93.16
2023-01-30T07:01:57.001Z,93.14
2023-01-30T07:03:00.391Z,93.19
2023-01-30T07:04:03.380Z,93.24
2023-01-30T07:05:08.799Z,93.33
2023-01-30T07:06:11.909Z,93.36
2023-01-30T07:07:15.119Z,93.52
2023-01-30T07:08:18.161Z,93.64
2023-01-30T07:09:21.297Z,93.64
2023-01-30T07:10:26.480Z,93.61
2023-01-30T07:11:29.849Z,93.57
2023-01-30T07:12:33.239Z,93.52
2023-01-30T07:13:36.231Z,93.48
2023-01-30T07:14:39.575Z,93.38
2023-01-30T07:15:42.504Z,93.27
2023-01-30T07:16:45.582Z,93.28
2023-01-30T07:17:48.572Z,93.14
2023-01-30T07:18:51.510Z,93.07
2023-01-30T07:19:54.699Z,93.04
2023-01-30T07:20:57.667Z,92.91
2023-01-30T07:22:02.418Z,92.47
2023-01-30T07:23:06.702Z,92.16
2023-01-30T07:24:09.694Z,92.18
2023-01-30T07:25:12.775Z,92.28
2023-01-30T07:26:15.978Z,92.29
2023-01-30T07:27:18.868Z,92.19
2023-01-30T07:28:21.779Z,92.15
2023-01-30T07:29:24.659Z,92.18
2023-01-30T07:30:30.317Z,92.18
2023-01-30T07:31:33.407Z,92.13
2023-01-30T07:32:37.009Z,92.13
2023-01-30T07:33:39.981Z,92.13
2023-01-30T07:34:43.018Z,92.08
2023-01-30T07:35:45.827Z,92.03
2023-01-30T07:36:48.976Z,91.89
2023-01-30T07:37:52.183Z,91.78
2023-01-30T07:38:55.205Z,91.67
2023-01-30T07:39:58.619Z,91.63
2023-01-30T07:41:01.693Z,91.72
2023-01-30T07:42:05.913Z,91.78
2023-01-30T07:43:12.453Z,91.71
2023-01-30T07:44:15.859Z,91.70
2023-01-30T07:45:19.078Z,91.65
2023-01-30T07:46:22.227Z,91.63
2023-01-30T07:47:25.183Z,91.39
2023-01-30T07:48:28.201Z,91.19
2023-01-30T07:49:31.184Z,91.08
2023-01-30T07:50:34.467Z,91.16
2023-01-30T07:51:37.480Z,91.21
2023-01-30T07:52:40.585Z,91.25
2023-01-30T07:53:43.479Z,91.31
2023-01-30T07:54:46.472Z,91.30
2023-01-30T07:55:49.522Z,91.20
2023-01-30T07:56:52.431Z,91.17
2023-01-30T07:57:58.639Z,91.14
2023-01-30T07:59:03.237Z,91.07
2023-01-30T08:00:07.203Z,91.05
2023-01-30T08:01:10.240Z,91.04
2023-01-30T08:02:13.415Z,90.87
2023-01-30T08:03:17.660Z,90.78
2023-01-30T08:04:20.730Z,90.74
2023-01-30T08:05:23.669Z,90.64
2023-01-30T08:06:26.689Z,90.55
2023-01-30T08:07:33.618Z,90.47
2023-01-30T08:08:36.527Z,90.44
2023-01-30T08:09:39.628Z,90.11
2023-01-30T08:10:43.300Z,89.82
2023-01-30T08:11:46.502Z,89.83
2023-01-30T08:12:52.341Z,89.96
2023-01-30T08:13:55.281Z,90.07
2023-01-30T08:14:58.458Z,90.04
2023-01-30T08:16:07.644Z,89.94
2023-01-30T08:17:10.641Z,89.99
2023-01-30T08:18:14.086Z,90.00
2023-01-30T08:19:17.328Z,90.02
2023-01-30T08:20:20.721Z,90.10
2023-01-30T08:21:24.287Z,90.13
2023-01-30T08:22:29.084Z,90.18
2023-01-30T08:23:33.351Z,90.18
2023-01-30T08:24:36.860Z,90.15
2023-01-30T08:25:39.889Z,90.23
2023-01-30T08:26:43.140Z,90.19
2023-01-30T08:27:46.193Z,90.18
2023-01-30T08:28:49.634Z,90.10
2023-01-30T08:29:52.796Z,89.90
2023-01-30T08:31:01.073Z,89.81
2023-01-30T08:32:04.138Z,89.85
2023-01-30T08:33:07.255Z,89.80
2023-01-30T08:34:10.168Z,89.58
2023-01-30T08:35:13.817Z,89.46
2023-01-30T08:36:16.864Z,89.44
2023-01-30T08:37:19.842Z,89.53
2023-01-30T08:38:23.021Z,89.51
2023-01-30T08:39:26.178Z,89.30
2023-01-30T08:40:29.845Z,88.94
2023-01-30T08:41:32.769Z,88.80
2023-01-30T08:42:35.979Z,88.75
2023-01-30T08:43:39.088Z,88.64
2023-01-30T08:44:42.020Z,88.59
2023-01-30T08:45:44.958Z,88.71
2023-01-30T08:46:48.416Z,88.50
2023-01-30T08:47:52.071Z,88.42
2023-01-30T08:48:55.150Z,88.47
2023-01-30T08:49:58.305Z,88.49
2023-01-30T08:51:01.304Z,88.34
2023-01-30T08:52:04.489Z,88.03
2023-01-30T08:53:10.300Z,87.18
2023-01-30T08:54:13.375Z,87.03
2023-01-30T08:55:16.338Z,87.08
2023-01-30T08:56:19.583Z,87.18
2023-01-30T08:57:25.607Z,87.29
2023-01-30T08:58:28.529Z,87.37
2023-01-30T08:59:31.450Z,86.75
2023-01-30T09:00:34.531Z,86.50
2023-01-30T09:01:38.727Z,86.82
2023-01-30T09:02:42.221Z,87.16
2023-01-30T09:03:45.261Z,87.17
2023-01-30T09:04:48.416Z,87.21
2023-01-30T09:05:56.581Z,87.31
2023-01-30T09:07:02.606Z,87.50
2023-01-30T09:08:05.750Z,87.67
2023-01-30T09:09:08.740Z,87.62
2023-01-30T09:10:11.921Z,87.24
2023-01-30T09:11:15.359Z,87.18
2023-01-30T09:12:19.287Z,87.28
2023-01-30T09:13:22.644Z,87.39
2023-01-30T09:14:25.773Z,87.48
2023-01-30T09:15:29.347Z,87.60
2023-01-30T09:16:32.589Z,87.49
2023-01-30T09:17:35.914Z,87.37
2023-01-30T09:18:41.013Z,87.44
2023-01-30T09:19:44.913Z,87.44
2023-01-30T09:20:47.923Z,87.33
2023-01-30T09:21:52.520Z,87.39
2023-01-30T09:22:55.622Z,87.34
2023-01-30T09:23:58.676Z,87.44
2023-01-30T09:25:01.753Z,87.51
2023-01-30T09:26:06.344Z,87.58
2023-01-30T09:27:09.592Z,87.72
2023-01-30T09:28:12.868Z,87.84
2023-01-30T09:29:16.083Z,87.74
2023-01-30T09:30:20.512Z,86.82
2023-01-30T09:31:24.099Z,86.01
2023-01-30T09:32:27.167Z,86.17
2023-01-30T09:33:30.326Z,86.38
2023-01-30T09:34:33.352Z,86.68
2023-01-30T09:35:36.383Z,86.89
2023-01-30T09:36:40.806Z,86.48
2023-01-30T09:37:54.665Z,86.43
2023-01-30T09:39:04.701Z,86.91
2023-01-30T09:40:14.916Z,86.97
2023-01-30T09:41:38.413Z,86.54
2023-01-30T09:43:08.894Z,86.43
2023-01-30T09:44:14.793Z,86.53
2023-01-30T09:45:32.827Z,86.63
2023-01-30T09:46:46.916Z,86.73
2023-01-30T09:47:52.987Z,86.24
2023-01-30T09:49:04.333Z,85.96
2023-01-30T09:50:46.245Z,85.89
2023-01-30T09:51:50.316Z,85.99
2023-01-30T09:53:12.119Z,86.09
2023-01-30T09:54:17.268Z,86.63
2023-01-30T09:55:26.797Z,86.80
2023-01-30T09:56:30.213Z,86.79
2023-01-30T09:57:33.293Z,86.77
2023-01-30T09:59:05.976Z,86.72
2023-01-30T10:00:15.944Z,86.84
2023-01-30T10:01:30.317Z,86.86
2023-01-30T10:02:40.337Z,86.85
2023-01-30T10:04:03.655Z,86.70
2023-01-30T10:05:07.654Z,86.59
2023-01-30T10:06:15.299Z,86.68
2023-01-30T10:07:27.537Z,86.82
2023-01-30T10:08:57.891Z,86.84
2023-01-30T10:10:38.315Z,86.51
2023-01-30T10:12:18.430Z,86.34
2023-01-30T10:13:33.608Z,86.39
2023-01-30T10:14:42.510Z,86.47
2023-01-30T10:15:54.637Z,86.43
2023-01-30T10:17:21.832Z,86.41
2023-01-30T10:18:54.509Z,85.98
2023-01-30T10:20:03.339Z,85.43
2023-01-30T10:21:28.106Z,85.05
2023-01-30T10:22:33.966Z,84.33
2023-01-30T10:23:58.688Z,83.70
2023-01-30T10:25:20.843Z,83.42
2023-01-30T10:26:27.177Z,83.54
2023-01-30T10:27:33.631Z,83.72
2023-01-30T10:28:49.885Z,83.25
2023-01-30T10:30:00.763Z,83.55
2023-01-30T10:31:16.030Z,83.99
2023-01-30T10:32:34.187Z,83.88
2023-01-30T10:34:02.659Z,83.31
2023-01-30T10:35:16.515Z,83.33
2023-01-30T10:36:46.737Z,83.34
2023-01-30T10:38:04.312Z,83.65
2023-01-30T10:39:21.799Z,83.31
2023-01-30T10:41:08.473Z,83.43
2023-01-30T10:42:38.815Z,83.40
2023-01-30T10:43:48.389Z,83.79
2023-01-30T10:45:01.320Z,83.88
2023-01-30T10:46:27.508Z,83.73
2023-01-30T10:47:49.416Z,83.84
2023-01-30T10:49:13.457Z,84.06
2023-01-30T10:50:20.778Z,83.64
2023-01-30T10:52:08.146Z,83.50
2023-01-30T10:53:35.751Z,83.66
2023-01-30T10:54:51.615Z,83.09
2023-01-30T10:56:29.814Z,83.28
2023-01-30T10:57:38.443Z,83.35
2023-01-30T10:59:16.960Z,83.34
2023-01-30T11:00:34.241Z,83.06
2023-01-30T11:01:51.069Z,83.49
2023-01-30T11:03:05.706Z,83.22
2023-01-30T11:04:30.483Z,82.99
2023-01-30T11:05:49.822Z,83.05
2023-01-30T11:06:54.199Z,82.87
2023-01-30T11:07:57.097Z,83.41
2023-01-30T11:09:00.117Z,83.61
2023-01-30T11:10:12.758Z,83.61
2023-01-30T11:11:41.446Z,83.10
2023-01-30T11:12:44.566Z,83.41
2023-01-30T11:13:47.635Z,83.48
2023-01-30T11:14:53.377Z,83.31
2023-01-30T11:16:00.021Z,83.41
2023-01-30T11:17:03.317Z,83.64
2023-01-30T11:18:58.248Z,83.49
2023-01-30T11:19:35.659Z,83.31
2023-01-30T11:20:44.059Z,83.39
2023-01-30T11:21:53.016Z,83.79
2023-01-30T11:23:06.814Z,84.06
2023-01-30T11:24:17.969Z,83.41
2023-01-30T11:25:23.298Z,83.13
2023-01-30T11:26:46.416Z,83.03
2023-01-30T11:28:03.594Z,83.31
2023-01-30T11:29:33.101Z,83.41
2023-01-30T11:30:37.151Z,83.30
2023-01-30T11:31:42.018Z,82.87
2023-01-30T11:32:48.510Z,82.95
2023-01-30T11:34:19.324Z,83.06
2023-01-30T11:35:29.739Z,82.90
2023-01-30T11:36:36.118Z,82.29
2023-01-30T11:37:44.250Z,82.21
2023-01-30T11:38:58.168Z,82.75
2023-01-30T11:40:24.432Z,82.77
2023-01-30T11:41:28.316Z,82.44
2023-01-30T11:42:35.886Z,82.54
2023-01-30T11:43:40.282Z,82.49
2023-01-30T11:44:43.829Z,82.00
2023-01-30T11:45:50.525Z,82.44
2023-01-30T11:46:53.967Z,82.90
2023-01-30T11:48:05.171Z,82.94
2023-01-30T11:49:47.543Z,83.04
2023-01-30T11:50:47.239Z,82.61
2023-01-30T11:51:54.823Z,82.66
2023-01-30T11:53:08.832Z,82.81
2023-01-30T11:54:48.312Z,82.94
2023-01-30T11:56:02.529Z,82.39
2023-01-30T11:57:20.427Z,82.50
2023-01-30T11:58:23.585Z,82.41
2023-01-30T11:59:32.517Z,82.73
2023-01-30T12:00:44.432Z,82.63
2023-01-30T12:01:47.924Z,82.13
2023-01-30T12:02:54.475Z,82.22
2023-01-30T12:03:59.249Z,82.43
2023-01-30T12:05:17.963Z,82.46
2023-01-30T12:06:43.016Z,82.61
2023-01-30T12:07:49.325Z,83.05
2023-01-30T12:08:54.647Z,83.17
2023-01-30T12:09:59.121Z,83.20
2023-01-30T12:11:02.814Z,83.24
2023-01-30T12:12:29.659Z,83.23
2023-01-30T12:13:38.535Z,83.30
2023-01-30T12:14:49.620Z,83.51
2023-01-30T12:16:15.714Z,83.67
2023-01-30T12:17:33.830Z,83.70
2023-01-30T12:19:03.909Z,83.78
2023-01-30T12:20:51.786Z,83.96
2023-01-30T12:22:11.608Z,83.94
2023-01-30T12:23:55.766Z,84.00
2023-01-30T12:25:01.123Z,84.12
2023-01-30T12:26:22.603Z,83.76
2023-01-30T12:29:23.291Z,83.74
2023-01-30T12:30:36.485Z,83.81
2023-01-30T12:31:46.544Z,83.87
2023-01-30T12:32:49.741Z,83.84
2023-01-30T12:33:56.830Z,83.60
2023-01-30T12:34:59.932Z,83.52
2023-01-30T12:36:21.682Z,83.49
2023-01-30T12:37:32.089Z,83.66
2023-01-30T12:39:07.429Z,83.77
2023-01-30T12:40:16.441Z,83.87
2023-01-30T12:41:28.849Z,83.57
2023-01-30T12:42:58.251Z,83.45
2023-01-30T12:44:04.194Z,83.39
2023-01-30T12:45:28.528Z,83.38
2023-01-30T12:46:51.551Z,83.45
2023-01-30T12:48:22.208Z,83.41
2023-01-30T12:50:02.708Z,83.36
2023-01-30T12:51:14.182Z,83.47
2023-01-30T12:52:29.348Z,83.51
2023-01-30T12:53:38.527Z,83.53
2023-01-30T12:54:50.820Z,83.54
2023-01-30T12:56:35.482Z,83.42
2023-01-30T12:57:49.622Z,82.72
2023-01-30T12:59:16.417Z,82.83
2023-01-30T13:01:00.188Z,82.94
2023-01-30T13:02:24.801Z,82.87
2023-01-30T13:03:28.717Z,82.72
2023-01-30T13:05:01.726Z,82.59
2023-01-30T13:06:36.224Z,82.48
2023-01-30T13:07:57.299Z,81.82
2023-01-30T13:09:35.839Z,82.12
2023-01-30T13:10:56.717Z,82.08
2023-01-30T13:12:29.082Z,82.09
2023-01-30T13:13:36.222Z,82.30
2023-01-30T13:15:03.387Z,81.85
2023-01-30T13:16:11.293Z,81.63
2023-01-30T13:17:20.162Z,81.70
2023-01-30T13:18:34.679Z,81.65
2023-01-30T13:19:56.283Z,81.80
2023-01-30T13:21:47.217Z,81.77
2023-01-30T13:23:13.337Z,81.81
2023-01-30T13:24:37.930Z,81.21
2023-01-30T13:25:55.684Z,80.61
2023-01-30T13:27:03.984Z,80.85
2023-01-30T13:28:14.625Z,81.15
2023-01-30T13:29:33.465Z,81.17
2023-01-30T13:30:36.613Z,81.36
2023-01-30T13:32:08.625Z,80.95
2023-01-30T13:33:39.047Z,81.13
2023-01-30T13:34:48.150Z,81.69
2023-01-30T13:36:14.045Z,81.77
2023-01-30T13:37:19.832Z,81.75
2023-01-30T13:38:27.017Z,81.58
2023-01-30T13:39:43.920Z,81.47
2023-01-30T13:41:06.442Z,81.85
2023-01-30T13:42:23.505Z,82.13
2023-01-30T13:43:37.532Z,82.22
2023-01-30T13:44:44.444Z,82.16
2023-01-30T13:45:50.951Z,82.05
2023-01-30T13:46:56.804Z,81.80
2023-01-30T13:48:24.126Z,81.02
2023-01-30T13:49:48.215Z,81.15
2023-01-30T13:51:29.199Z,81.40
2023-01-30T13:53:16.247Z,81.05
2023-01-30T13:54:31.137Z,80.93
2023-01-30T13:55:58.314Z,81.00
2023-01-30T13:57:15.146Z,81.16
2023-01-30T13:58:44.229Z,81.16
2023-01-30T14:00:10.190Z,81.22
2023-01-30T14:01:14.460Z,81.14
2023-01-30T14:02:21.156Z,80.37
2023-01-30T14:03:30.792Z,80.33
2023-01-30T14:04:42.626Z,80.47
2023-01-30T14:05:59.653Z,80.62
2023-01-30T14:07:40.284Z,80.60
2023-01-30T14:08:45.906Z,80.58
2023-01-30T14:10:02.579Z,80.82
2023-01-30T14:11:33.910Z,80.37
2023-01-30T14:12:51.310Z,80.36
2023-01-30T14:14:02.709Z,80.64
2023-01-30T14:15:14.969Z,80.71
2023-01-30T14:16:18.090Z,80.74
2023-01-30T14:17:21.280Z,80.78
2023-01-30T14:18:39.032Z,80.64
2023-01-30T14:19:44.202Z,80.93
2023-01-30T14:20:49.607Z,81.06
2023-01-30T14:22:02.286Z,80.84
2023-01-30T14:23:20.614Z,80.95
2023-01-30T14:24:27.874Z,81.05
2023-01-30T14:25:43.788Z,81.16
2023-01-30T14:26:50.597Z,81.11
2023-01-30T14:27:56.279Z,81.07
2023-01-30T14:29:00.007Z,81.26
2023-01-30T14:30:03.161Z,81.28
2023-01-30T14:31:08.270Z,81.54
2023-01-30T14:32:19.288Z,81.69
2023-01-30T14:33:22.406Z,81.95
2023-01-30T14:34:48.811Z,81.92
2023-01-30T14:36:01.291Z,81.68
2023-01-30T14:37:39.549Z,81.47
2023-01-30T14:38:45.676Z,81.67
2023-01-30T14:39:54.341Z,81.91
2023-01-30T14:41:00.573Z,82.17
2023-01-30T14:42:27.767Z,82.44
2023-01-30T14:43:43.247Z,82.54
2023-01-30T14:45:01.653Z,82.57
2023-01-30T14:46:20.367Z,82.48
2023-01-30T14:47:45.123Z,82.81
2023-01-30T14:48:55.667Z,83.18
2023-01-30T14:50:05.656Z,83.47
2023-01-30T14:51:20.830Z,83.28